sensor_id;sensor_type;location;lat;lon;timestamp;P1;durP1;ratioP1;P2;durP2;ratioP2
66118;SDS011;52912;48.564;9.302;2023-02-15T00:01:57;24.95;;;15.00;;
66118;SDS011;52912;48.564;9.302;2023-02-15T00:04:23;24.13;;;14.65;;
66118;SDS011;52912;48.564;9.302;2023-02-15T00:06:49;25.00;;;15.00;;
66118;SDS011;52912;48.564;9.302;2023-02-15T00:09:15;25.20;;;14.73;;
66118;SDS011;52912;48.564;9.302;2023-02-15T00:11:41;26.40;;;14.93;;
66118;SDS011;52912;48.564;9.302;2023-02-15T00:14:08;24.02;;;14.55;;
66118;SDS011;52912;48.564;9.302;2023-02-15T00:16:36;26.38;;;15.80;;
66118;SDS011;52912;48.564;9.302;2023-02-15T00:19:02;27.75;;;15.88;;
66118;SDS011;52912;48.564;9.302;2023-02-15T00:21:28;28.67;;;16.63;;
66118;SDS011;52912;48.564;9.302;2023-02-15T00:23:54;28.33;;;16.73;;
66118;SDS011;52912;48.564;9.302;2023-02-15T00:26:20;30.75;;;16.60;;
66118;SDS011;52912;48.564;9.302;2023-02-15T00:28:45;27.55;;;15.68;;
66118;SDS011;52912;48.564;9.302;2023-02-15T00:31:12;31.15;;;15.77;;
66118;SDS011;52912;48.564;9.302;2023-02-15T00:33:38;31.73;;;16.52;;
66118;SDS011;52912;48.564;9.302;2023-02-15T00:36:05;27.88;;;14.77;;
66118;SDS011;52912;48.564;9.302;2023-02-15T00:38:32;25.98;;;15.57;;
66118;SDS011;52912;48.564;9.302;2023-02-15T00:40:59;22.92;;;14.50;;
66118;SDS011;52912;48.564;9.302;2023-02-15T00:43:26;25.48;;;14.82;;
66118;SDS011;52912;48.564;9.302;2023-02-15T00:45:52;25.35;;;14.82;;
66118;SDS011;52912;48.564;9.302;2023-02-15T00:48:19;23.98;;;14.98;;
66118;SDS011;52912;48.564;9.302;2023-02-15T00:50:45;24.20;;;14.60;;
66118;SDS011;52912;48.564;9.302;2023-02-15T00:53:12;26.08;;;14.95;;
66118;SDS011;52912;48.564;9.302;2023-02-15T00:55:37;26.45;;;14.57;;
66118;SDS011;52912;48.564;9.302;2023-02-15T00:58:03;26.73;;;14.85;;
66118;SDS011;52912;48.564;9.302;2023-02-15T01:00:28;24.90;;;14.18;;
66118;SDS011;52912;48.564;9.302;2023-02-15T01:02:53;23.98;;;14.10;;
66118;SDS011;52912;48.564;9.302;2023-02-15T01:05:20;24.00;;;13.63;;
66118;SDS011;52912;48.564;9.302;2023-02-15T01:07:46;24.38;;;14.43;;
66118;SDS011;52912;48.564;9.302;2023-02-15T01:10:11;25.35;;;14.93;;
66118;SDS011;52912;48.564;9.302;2023-02-15T01:12:37;27.45;;;13.73;;
66118;SDS011;52912;48.564;9.302;2023-02-15T01:15:02;26.50;;;14.43;;
66118;SDS011;52912;48.564;9.302;2023-02-15T01:17:28;23.38;;;13.48;;
66118;SDS011;52912;48.564;9.302;2023-02-15T01:19:53;25.45;;;13.75;;
66118;SDS011;52912;48.564;9.302;2023-02-15T01:22:20;23.02;;;14.05;;
66118;SDS011;52912;48.564;9.302;2023-02-15T01:24:48;21.17;;;12.77;;
66118;SDS011;52912;48.564;9.302;2023-02-15T01:27:13;24.50;;;14.35;;
66118;SDS011;52912;48.564;9.302;2023-02-15T01:29:39;24.63;;;13.90;;
66118;SDS011;52912;48.564;9.302;2023-02-15T01:32:04;26.90;;;14.32;;
66118;SDS011;52912;48.564;9.302;2023-02-15T01:34:30;28.35;;;14.82;;
66118;SDS011;52912;48.564;9.302;2023-02-15T01:36:55;26.38;;;14.45;;
66118;SDS011;52912;48.564;9.302;2023-02-15T01:39:22;27.35;;;15.35;;
66118;SDS011;52912;48.564;9.302;2023-02-15T01:41:48;22.88;;;13.32;;
66118;SDS011;52912;48.564;9.302;2023-02-15T01:47:16;25.85;;;14.63;;
66118;SDS011;52912;48.564;9.302;2023-02-15T01:49:44;23.65;;;14.32;;
66118;SDS011;52912;48.564;9.302;2023-02-15T01:52:11;25.42;;;13.95;;
66118;SDS011;52912;48.564;9.302;2023-02-15T01:57:09;23.77;;;13.63;;
66118;SDS011;52912;48.564;9.302;2023-02-15T01:59:39;25.27;;;14.25;;
66118;SDS011;52912;48.564;9.302;2023-02-15T02:02:08;26.30;;;14.80;;
66118;SDS011;52912;48.564;9.302;2023-02-15T02:04:38;23.48;;;13.35;;
66118;SDS011;52912;48.564;9.302;2023-02-15T02:07:06;25.13;;;14.32;;
66118;SDS011;52912;48.564;9.302;2023-02-15T02:09:33;25.10;;;14.18;;
66118;SDS011;52912;48.564;9.302;2023-02-15T02:12:00;23.70;;;14.00;;
66118;SDS011;52912;48.564;9.302;2023-02-15T02:14:26;27.05;;;13.75;;
66118;SDS011;52912;48.564;9.302;2023-02-15T02:16:53;27.88;;;14.57;;
66118;SDS011;52912;48.564;9.302;2023-02-15T02:19:39;25.15;;;14.05;;
66118;SDS011;52912;48.564;9.302;2023-02-15T02:25:46;24.83;;;13.82;;
66118;SDS011;52912;48.564;9.302;2023-02-15T02:28:46;27.88;;;14.85;;
66118;SDS011;52912;48.564;9.302;2023-02-15T02:31:39;27.08;;;13.90;;
66118;SDS011;52912;48.564;9.302;2023-02-15T02:34:12;25.88;;;14.38;;
66118;SDS011;52912;48.564;9.302;2023-02-15T02:36:44;28.08;;;14.07;;
66118;SDS011;52912;48.564;9.302;2023-02-15T02:39:19;29.58;;;15.75;;
66118;SDS011;52912;48.564;9.302;2023-02-15T02:41:55;26.00;;;13.95;;
66118;SDS011;52912;48.564;9.302;2023-02-15T02:44:24;24.80;;;13.85;;
66118;SDS011;52912;48.564;9.302;2023-02-15T02:46:54;26.73;;;14.73;;
66118;SDS011;52912;48.564;9.302;2023-02-15T02:49:30;28.25;;;14.55;;
66118;SDS011;52912;48.564;9.302;2023-02-15T02:51:58;27.58;;;14.48;;
66118;SDS011;52912;48.564;9.302;2023-02-15T02:54:24;23.88;;;13.73;;
66118;SDS011;52912;48.564;9.302;2023-02-15T02:56:50;29.70;;;15.18;;
66118;SDS011;52912;48.564;9.302;2023-02-15T02:59:18;28.73;;;15.82;;
66118;SDS011;52912;48.564;9.302;2023-02-15T03:01:49;26.45;;;14.82;;
66118;SDS011;52912;48.564;9.302;2023-02-15T03:04:17;24.17;;;14.25;;
66118;SDS011;52912;48.564;9.302;2023-02-15T03:06:48;26.90;;;15.98;;
66118;SDS011;52912;48.564;9.302;2023-02-15T03:09:18;27.02;;;14.93;;
66118;SDS011;52912;48.564;9.302;2023-02-15T03:11:48;27.13;;;14.10;;
66118;SDS011;52912;48.564;9.302;2023-02-15T03:14:15;28.10;;;14.85;;
66118;SDS011;52912;48.564;9.302;2023-02-15T03:16:43;26.83;;;15.13;;
66118;SDS011;52912;48.564;9.302;2023-02-15T03:19:13;27.77;;;14.15;;
66118;SDS011;52912;48.564;9.302;2023-02-15T03:21:43;25.27;;;13.85;;
66118;SDS011;52912;48.564;9.302;2023-02-15T03:24:13;26.48;;;14.48;;
66118;SDS011;52912;48.564;9.302;2023-02-15T03:26:45;24.73;;;14.65;;
66118;SDS011;52912;48.564;9.302;2023-02-15T03:29:12;29.80;;;14.85;;
66118;SDS011;52912;48.564;9.302;2023-02-15T03:31:41;25.35;;;14.02;;
66118;SDS011;52912;48.564;9.302;2023-02-15T03:34:11;26.30;;;14.80;;
66118;SDS011;52912;48.564;9.302;2023-02-15T03:36:40;25.05;;;13.88;;
66118;SDS011;52912;48.564;9.302;2023-02-15T03:39:11;28.08;;;14.60;;
66118;SDS011;52912;48.564;9.302;2023-02-15T03:41:44;28.20;;;14.65;;
66118;SDS011;52912;48.564;9.302;2023-02-15T03:44:15;25.20;;;14.10;;
66118;SDS011;52912;48.564;9.302;2023-02-15T03:46:45;26.60;;;14.70;;
66118;SDS011;52912;48.564;9.302;2023-02-15T03:49:14;25.55;;;14.02;;
66118;SDS011;52912;48.564;9.302;2023-02-15T03:51:44;29.17;;;14.30;;
66118;SDS011;52912;48.564;9.302;2023-02-15T03:54:15;27.30;;;15.55;;
66118;SDS011;52912;48.564;9.302;2023-02-15T03:56:44;26.17;;;13.90;;
66118;SDS011;52912;48.564;9.302;2023-02-15T03:59:09;27.13;;;14.18;;
66118;SDS011;52912;48.564;9.302;2023-02-15T04:01:36;27.45;;;14.63;;
66118;SDS011;52912;48.564;9.302;2023-02-15T04:04:06;23.15;;;13.65;;
66118;SDS011;52912;48.564;9.302;2023-02-15T04:06:37;25.40;;;13.85;;
66118;SDS011;52912;48.564;9.302;2023-02-15T04:09:02;25.90;;;13.85;;
66118;SDS011;52912;48.564;9.302;2023-02-15T04:11:29;26.25;;;15.40;;
66118;SDS011;52912;48.564;9.302;2023-02-15T04:13:55;26.88;;;14.48;;
66118;SDS011;52912;48.564;9.302;2023-02-15T04:16:20;25.63;;;14.77;;
66118;SDS011;52912;48.564;9.302;2023-02-15T04:18:46;23.27;;;13.50;;
66118;SDS011;52912;48.564;9.302;2023-02-15T04:21:11;24.83;;;14.15;;
66118;SDS011;52912;48.564;9.302;2023-02-15T04:23:37;27.35;;;13.85;;
66118;SDS011;52912;48.564;9.302;2023-02-15T04:26:02;25.27;;;13.98;;
66118;SDS011;52912;48.564;9.302;2023-02-15T04:28:29;24.10;;;13.93;;
66118;SDS011;52912;48.564;9.302;2023-02-15T04:30:55;24.92;;;14.65;;
66118;SDS011;52912;48.564;9.302;2023-02-15T04:33:20;28.38;;;14.48;;
66118;SDS011;52912;48.564;9.302;2023-02-15T04:35:46;25.67;;;14.90;;
66118;SDS011;52912;48.564;9.302;2023-02-15T04:38:11;26.33;;;14.20;;
66118;SDS011;52912;48.564;9.302;2023-02-15T04:40:37;28.90;;;14.82;;
66118;SDS011;52912;48.564;9.302;2023-02-15T04:43:02;28.10;;;15.93;;
66118;SDS011;52912;48.564;9.302;2023-02-15T04:45:29;28.75;;;16.27;;
66118;SDS011;52912;48.564;9.302;2023-02-15T04:47:54;27.15;;;14.68;;
66118;SDS011;52912;48.564;9.302;2023-02-15T04:50:20;29.75;;;15.73;;
66118;SDS011;52912;48.564;9.302;2023-02-15T04:52:45;28.90;;;15.38;;
66118;SDS011;52912;48.564;9.302;2023-02-15T04:55:11;26.10;;;15.25;;
66118;SDS011;52912;48.564;9.302;2023-02-15T04:57:36;24.65;;;15.13;;
66118;SDS011;52912;48.564;9.302;2023-02-15T05:00:02;27.27;;;15.52;;
66118;SDS011;52912;48.564;9.302;2023-02-15T05:02:29;27.35;;;14.40;;
66118;SDS011;52912;48.564;9.302;2023-02-15T05:04:55;25.02;;;14.27;;
66118;SDS011;52912;48.564;9.302;2023-02-15T05:07:20;26.30;;;14.93;;
66118;SDS011;52912;48.564;9.302;2023-02-15T05:09:46;26.85;;;14.23;;
66118;SDS011;52912;48.564;9.302;2023-02-15T05:12:11;22.63;;;13.55;;
66118;SDS011;52912;48.564;9.302;2023-02-15T05:14:37;24.17;;;14.18;;
66118;SDS011;52912;48.564;9.302;2023-02-15T05:17:02;30.30;;;15.50;;
66118;SDS011;52912;48.564;9.302;2023-02-15T05:19:29;25.27;;;14.13;;
66118;SDS011;52912;48.564;9.302;2023-02-15T05:21:54;27.13;;;15.60;;
66118;SDS011;52912;48.564;9.302;2023-02-15T05:24:20;28.90;;;15.98;;
66118;SDS011;52912;48.564;9.302;2023-02-15T05:26:45;26.73;;;15.32;;
66118;SDS011;52912;48.564;9.302;2023-02-15T05:29:11;27.55;;;14.60;;
66118;SDS011;52912;48.564;9.302;2023-02-15T05:31:36;27.02;;;15.05;;
66118;SDS011;52912;48.564;9.302;2023-02-15T05:34:02;29.33;;;16.50;;
66118;SDS011;52912;48.564;9.302;2023-02-15T05:36:29;27.33;;;14.63;;
66118;SDS011;52912;48.564;9.302;2023-02-15T05:38:55;27.08;;;14.90;;
66118;SDS011;52912;48.564;9.302;2023-02-15T05:41:20;31.02;;;14.75;;
66118;SDS011;52912;48.564;9.302;2023-02-15T05:43:46;31.40;;;16.85;;
66118;SDS011;52912;48.564;9.302;2023-02-15T05:46:13;27.67;;;15.70;;
66118;SDS011;52912;48.564;9.302;2023-02-15T05:48:38;30.88;;;15.23;;
66118;SDS011;52912;48.564;9.302;2023-02-15T05:51:04;35.50;;;15.65;;
66118;SDS011;52912;48.564;9.302;2023-02-15T05:53:33;28.85;;;14.60;;
66118;SDS011;52912;48.564;9.302;2023-02-15T05:56:00;31.73;;;17.38;;
66118;SDS011;52912;48.564;9.302;2023-02-15T05:58:25;26.63;;;15.57;;
66118;SDS011;52912;48.564;9.302;2023-02-15T06:00:51;27.73;;;15.05;;
66118;SDS011;52912;48.564;9.302;2023-02-15T06:03:16;25.42;;;13.48;;
66118;SDS011;52912;48.564;9.302;2023-02-15T06:05:42;25.25;;;14.23;;
66118;SDS011;52912;48.564;9.302;2023-02-15T06:08:07;26.58;;;14.63;;
66118;SDS011;52912;48.564;9.302;2023-02-15T06:10:34;24.42;;;14.07;;
66118;SDS011;52912;48.564;9.302;2023-02-15T06:13:00;21.45;;;11.40;;
66118;SDS011;52912;48.564;9.302;2023-02-15T06:15:25;23.92;;;12.15;;
66118;SDS011;52912;48.564;9.302;2023-02-15T06:17:51;29.95;;;13.05;;
66118;SDS011;52912;48.564;9.302;2023-02-15T06:20:16;27.02;;;12.75;;
66118;SDS011;52912;48.564;9.302;2023-02-15T06:22:42;28.10;;;15.32;;
66118;SDS011;52912;48.564;9.302;2023-02-15T06:25:07;18.88;;;11.52;;
66118;SDS011;52912;48.564;9.302;2023-02-15T06:27:34;24.42;;;13.63;;
66118;SDS011;52912;48.564;9.302;2023-02-15T06:29:59;25.08;;;14.48;;
66118;SDS011;52912;48.564;9.302;2023-02-15T06:32:25;21.70;;;12.23;;
66118;SDS011;52912;48.564;9.302;2023-02-15T06:34:50;25.48;;;13.40;;
66118;SDS011;52912;48.564;9.302;2023-02-15T06:37:16;26.42;;;13.85;;
66118;SDS011;52912;48.564;9.302;2023-02-15T06:39:41;27.02;;;14.52;;
66118;SDS011;52912;48.564;9.302;2023-02-15T06:42:07;24.70;;;12.93;;
66118;SDS011;52912;48.564;9.302;2023-02-15T06:44:33;24.60;;;13.27;;
66118;SDS011;52912;48.564;9.302;2023-02-15T06:46:59;25.40;;;13.63;;
66118;SDS011;52912;48.564;9.302;2023-02-15T06:49:24;27.77;;;14.32;;
66118;SDS011;52912;48.564;9.302;2023-02-15T06:51:50;25.17;;;15.43;;
66118;SDS011;52912;48.564;9.302;2023-02-15T06:54:15;24.20;;;13.15;;
66118;SDS011;52912;48.564;9.302;2023-02-15T06:56:41;21.10;;;12.90;;
66118;SDS011;52912;48.564;9.302;2023-02-15T06:59:06;23.85;;;13.20;;
66118;SDS011;52912;48.564;9.302;2023-02-15T07:01:33;28.42;;;13.50;;
66118;SDS011;52912;48.564;9.302;2023-02-15T07:03:58;26.70;;;12.82;;
66118;SDS011;52912;48.564;9.302;2023-02-15T07:06:24;25.52;;;12.32;;
66118;SDS011;52912;48.564;9.302;2023-02-15T07:08:49;32.83;;;13.43;;
66118;SDS011;52912;48.564;9.302;2023-02-15T07:11:15;21.90;;;12.75;;
66118;SDS011;52912;48.564;9.302;2023-02-15T07:13:40;25.55;;;13.35;;
66118;SDS011;52912;48.564;9.302;2023-02-15T07:16:06;22.08;;;13.40;;
66118;SDS011;52912;48.564;9.302;2023-02-15T07:18:32;26.13;;;13.95;;
66118;SDS011;52912;48.564;9.302;2023-02-15T07:20:58;23.67;;;12.90;;
66118;SDS011;52912;48.564;9.302;2023-02-15T07:23:23;19.92;;;12.25;;
66118;SDS011;52912;48.564;9.302;2023-02-15T07:25:50;21.23;;;12.18;;
66118;SDS011;52912;48.564;9.302;2023-02-15T07:28:21;22.63;;;12.77;;
66118;SDS011;52912;48.564;9.302;2023-02-15T07:30:47;22.15;;;12.35;;
66118;SDS011;52912;48.564;9.302;2023-02-15T07:33:12;27.63;;;15.05;;
66118;SDS011;52912;48.564;9.302;2023-02-15T07:35:45;26.27;;;12.43;;
66118;SDS011;52912;48.564;9.302;2023-02-15T07:38:11;26.90;;;13.00;;
66118;SDS011;52912;48.564;9.302;2023-02-15T07:40:37;23.65;;;12.95;;
66118;SDS011;52912;48.564;9.302;2023-02-15T07:43:02;20.67;;;11.98;;
66118;SDS011;52912;48.564;9.302;2023-02-15T07:45:27;22.08;;;11.68;;
66118;SDS011;52912;48.564;9.302;2023-02-15T07:47:53;21.85;;;12.95;;
66118;SDS011;52912;48.564;9.302;2023-02-15T07:50:18;19.13;;;11.85;;
66118;SDS011;52912;48.564;9.302;2023-02-15T07:52:45;19.77;;;11.65;;
66118;SDS011;52912;48.564;9.302;2023-02-15T07:55:11;21.15;;;12.48;;
66118;SDS011;52912;48.564;9.302;2023-02-15T07:57:36;23.38;;;13.32;;
66118;SDS011;52912;48.564;9.302;2023-02-15T08:00:02;21.40;;;13.02;;
66118;SDS011;52912;48.564;9.302;2023-02-15T08:02:28;23.00;;;13.85;;
66118;SDS011;52912;48.564;9.302;2023-02-15T08:04:53;23.40;;;13.55;;
66118;SDS011;52912;48.564;9.302;2023-02-15T08:07:18;24.85;;;13.60;;
66118;SDS011;52912;48.564;9.302;2023-02-15T08:09:45;24.75;;;14.45;;
66118;SDS011;52912;48.564;9.302;2023-02-15T08:12:11;25.40;;;14.73;;
66118;SDS011;52912;48.564;9.302;2023-02-15T08:14:36;27.58;;;15.18;;
66118;SDS011;52912;48.564;9.302;2023-02-15T08:17:01;24.30;;;13.38;;
66118;SDS011;52912;48.564;9.302;2023-02-15T08:19:28;22.15;;;13.52;;
66118;SDS011;52912;48.564;9.302;2023-02-15T08:21:55;25.38;;;13.63;;
66118;SDS011;52912;48.564;9.302;2023-02-15T08:24:22;22.08;;;13.95;;
66118;SDS011;52912;48.564;9.302;2023-02-15T08:26:50;24.27;;;14.05;;
66118;SDS011;52912;48.564;9.302;2023-02-15T08:29:17;21.75;;;13.07;;
66118;SDS011;52912;48.564;9.302;2023-02-15T08:31:43;19.48;;;11.40;;
66118;SDS011;52912;48.564;9.302;2023-02-15T08:34:10;25.33;;;13.73;;
66118;SDS011;52912;48.564;9.302;2023-02-15T08:36:38;42.03;;;18.47;;
66118;SDS011;52912;48.564;9.302;2023-02-15T08:39:04;53.90;;;24.45;;
66118;SDS011;52912;48.564;9.302;2023-02-15T08:41:31;34.03;;;16.25;;
66118;SDS011;52912;48.564;9.302;2023-02-15T08:44:00;24.52;;;13.95;;
66118;SDS011;52912;48.564;9.302;2023-02-15T08:46:28;22.35;;;12.05;;
66118;SDS011;52912;48.564;9.302;2023-02-15T08:48:55;23.52;;;12.55;;
66118;SDS011;52912;48.564;9.302;2023-02-15T08:51:21;22.25;;;12.68;;
66118;SDS011;52912;48.564;9.302;2023-02-15T08:53:48;21.77;;;13.38;;
66118;SDS011;52912;48.564;9.302;2023-02-15T08:56:15;24.38;;;15.20;;
66118;SDS011;52912;48.564;9.302;2023-02-15T08:58:41;21.42;;;13.82;;
66118;SDS011;52912;48.564;9.302;2023-02-15T09:01:12;20.92;;;12.70;;
66118;SDS011;52912;48.564;9.302;2023-02-15T09:03:38;22.48;;;12.15;;
66118;SDS011;52912;48.564;9.302;2023-02-15T09:06:05;25.00;;;12.85;;
66118;SDS011;52912;48.564;9.302;2023-02-15T09:08:31;22.20;;;13.30;;
66118;SDS011;52912;48.564;9.302;2023-02-15T09:11:04;24.13;;;13.27;;
66118;SDS011;52912;48.564;9.302;2023-02-15T09:13:31;30.27;;;13.80;;
66118;SDS011;52912;48.564;9.302;2023-02-15T09:15:58;22.40;;;13.85;;
66118;SDS011;52912;48.564;9.302;2023-02-15T09:18:25;20.60;;;12.63;;
66118;SDS011;52912;48.564;9.302;2023-02-15T09:20:51;20.02;;;12.20;;
66118;SDS011;52912;48.564;9.302;2023-02-15T09:23:16;18.00;;;10.55;;
66118;SDS011;52912;48.564;9.302;2023-02-15T09:25:42;22.35;;;12.27;;
66118;SDS011;52912;48.564;9.302;2023-02-15T09:28:08;17.05;;;10.35;;
66118;SDS011;52912;48.564;9.302;2023-02-15T09:30:33;20.80;;;11.35;;
66118;SDS011;52912;48.564;9.302;2023-02-15T09:32:59;22.35;;;11.80;;
66118;SDS011;52912;48.564;9.302;2023-02-15T09:35:25;16.27;;;10.20;;
66118;SDS011;52912;48.564;9.302;2023-02-15T09:37:51;19.23;;;11.80;;
66118;SDS011;52912;48.564;9.302;2023-02-15T09:40:16;17.88;;;11.27;;
66118;SDS011;52912;48.564;9.302;2023-02-15T09:42:46;19.88;;;10.65;;
66118;SDS011;52912;48.564;9.302;2023-02-15T09:45:24;18.35;;;11.05;;
66118;SDS011;52912;48.564;9.302;2023-02-15T09:48:01;20.95;;;10.27;;
66118;SDS011;52912;48.564;9.302;2023-02-15T09:50:43;20.70;;;11.63;;
66118;SDS011;52912;48.564;9.302;2023-02-15T09:53:24;18.23;;;10.95;;
66118;SDS011;52912;48.564;9.302;2023-02-15T09:55:57;20.35;;;10.43;;
66118;SDS011;52912;48.564;9.302;2023-02-15T09:58:33;19.80;;;11.40;;
66118;SDS011;52912;48.564;9.302;2023-02-15T10:01:05;19.48;;;11.55;;
66118;SDS011;52912;48.564;9.302;2023-02-15T10:03:46;20.95;;;12.02;;
66118;SDS011;52912;48.564;9.302;2023-02-15T10:06:31;20.15;;;12.00;;
66118;SDS011;52912;48.564;9.302;2023-02-15T10:11:40;23.65;;;11.80;;
66118;SDS011;52912;48.564;9.302;2023-02-15T10:14:19;19.00;;;11.70;;
66118;SDS011;52912;48.564;9.302;2023-02-15T10:17:03;21.85;;;11.93;;
66118;SDS011;52912;48.564;9.302;2023-02-15T10:19:40;22.27;;;12.35;;
66118;SDS011;52912;48.564;9.302;2023-02-15T10:22:16;21.88;;;11.68;;
66118;SDS011;52912;48.564;9.302;2023-02-15T10:27:26;20.10;;;11.73;;
66118;SDS011;52912;48.564;9.302;2023-02-15T10:30:02;19.48;;;11.48;;
66118;SDS011;52912;48.564;9.302;2023-02-15T10:32:35;19.83;;;13.15;;
66118;SDS011;52912;48.564;9.302;2023-02-15T10:35:08;24.52;;;12.57;;
66118;SDS011;52912;48.564;9.302;2023-02-15T10:40:28;18.95;;;12.18;;
66118;SDS011;52912;48.564;9.302;2023-02-15T10:43:17;26.05;;;13.48;;
66118;SDS011;52912;48.564;9.302;2023-02-15T10:45:54;19.08;;;13.15;;
66118;SDS011;52912;48.564;9.302;2023-02-15T10:48:35;16.70;;;10.45;;
66118;SDS011;52912;48.564;9.302;2023-02-15T10:51:19;19.13;;;12.48;;
66118;SDS011;52912;48.564;9.302;2023-02-15T10:54:02;18.52;;;12.77;;
66118;SDS011;52912;48.564;9.302;2023-02-15T10:56:35;19.13;;;12.52;;
66118;SDS011;52912;48.564;9.302;2023-02-15T10:59:17;20.25;;;13.52;;
66118;SDS011;52912;48.564;9.302;2023-02-15T11:01:51;24.73;;;13.73;;
66118;SDS011;52912;48.564;9.302;2023-02-15T11:04:35;20.52;;;13.00;;
66118;SDS011;52912;48.564;9.302;2023-02-15T11:07:08;23.77;;;13.18;;
66118;SDS011;52912;48.564;9.302;2023-02-15T11:09:42;20.52;;;13.13;;
66118;SDS011;52912;48.564;9.302;2023-02-15T11:12:12;24.23;;;12.88;;
66118;SDS011;52912;48.564;9.302;2023-02-15T11:14:43;22.20;;;14.10;;
66118;SDS011;52912;48.564;9.302;2023-02-15T11:17:12;20.25;;;12.93;;
66118;SDS011;52912;48.564;9.302;2023-02-15T11:19:41;20.05;;;12.70;;
66118;SDS011;52912;48.564;9.302;2023-02-15T11:22:15;21.83;;;13.63;;
66118;SDS011;52912;48.564;9.302;2023-02-15T11:24:43;21.65;;;13.23;;
66118;SDS011;52912;48.564;9.302;2023-02-15T11:27:19;17.50;;;12.38;;
66118;SDS011;52912;48.564;9.302;2023-02-15T11:29:49;16.92;;;12.50;;
66118;SDS011;52912;48.564;9.302;2023-02-15T11:32:20;21.30;;;13.20;;
66118;SDS011;52912;48.564;9.302;2023-02-15T11:34:49;18.83;;;12.40;;
66118;SDS011;52912;48.564;9.302;2023-02-15T11:37:19;20.27;;;12.68;;
66118;SDS011;52912;48.564;9.302;2023-02-15T11:39:51;18.25;;;12.52;;
66118;SDS011;52912;48.564;9.302;2023-02-15T11:42:17;20.95;;;12.32;;
66118;SDS011;52912;48.564;9.302;2023-02-15T11:44:47;17.90;;;12.38;;
66118;SDS011;52912;48.564;9.302;2023-02-15T11:47:19;18.02;;;11.85;;
66118;SDS011;52912;48.564;9.302;2023-02-15T11:49:44;19.08;;;12.82;;
66118;SDS011;52912;48.564;9.302;2023-02-15T11:52:12;16.88;;;11.48;;
66118;SDS011;52912;48.564;9.302;2023-02-15T11:54:40;16.48;;;11.43;;
66118;SDS011;52912;48.564;9.302;2023-02-15T11:57:11;16.73;;;11.70;;
66118;SDS011;52912;48.564;9.302;2023-02-15T11:59:40;17.25;;;11.38;;
66118;SDS011;52912;48.564;9.302;2023-02-15T12:02:14;17.80;;;12.23;;
66118;SDS011;52912;48.564;9.302;2023-02-15T12:04:42;19.15;;;11.77;;
66118;SDS011;52912;48.564;9.302;2023-02-15T12:07:14;16.73;;;11.48;;
66118;SDS011;52912;48.564;9.302;2023-02-15T12:09:45;17.38;;;12.23;;
66118;SDS011;52912;48.564;9.302;2023-02-15T12:12:22;17.35;;;11.20;;
66118;SDS011;52912;48.564;9.302;2023-02-15T12:14:49;16.58;;;9.60;;
66118;SDS011;52912;48.564;9.302;2023-02-15T12:17:16;14.68;;;10.18;;
66118;SDS011;52912;48.564;9.302;2023-02-15T12:19:42;14.27;;;9.52;;
66118;SDS011;52912;48.564;9.302;2023-02-15T12:22:10;16.63;;;9.98;;
66118;SDS011;52912;48.564;9.302;2023-02-15T12:24:46;13.48;;;8.50;;
66118;SDS011;52912;48.564;9.302;2023-02-15T12:27:14;10.35;;;6.13;;
66118;SDS011;52912;48.564;9.302;2023-02-15T12:29:43;11.05;;;5.85;;
66118;SDS011;52912;48.564;9.302;2023-02-15T12:32:16;8.05;;;5.15;;
66118;SDS011;52912;48.564;9.302;2023-02-15T12:34:43;8.82;;;5.90;;
66118;SDS011;52912;48.564;9.302;2023-02-15T12:37:10;9.80;;;5.20;;
66118;SDS011;52912;48.564;9.302;2023-02-15T12:39:50;11.77;;;4.88;;
66118;SDS011;52912;48.564;9.302;2023-02-15T12:42:17;10.18;;;5.80;;
66118;SDS011;52912;48.564;9.302;2023-02-15T12:44:53;9.77;;;6.72;;
66118;SDS011;52912;48.564;9.302;2023-02-15T12:47:23;12.88;;;8.90;;
66118;SDS011;52912;48.564;9.302;2023-02-15T12:50:03;16.25;;;9.00;;
66118;SDS011;52912;48.564;9.302;2023-02-15T12:52:31;14.35;;;8.60;;
66118;SDS011;52912;48.564;9.302;2023-02-15T12:54:58;15.60;;;9.00;;
66118;SDS011;52912;48.564;9.302;2023-02-15T12:57:42;13.30;;;8.13;;
66118;SDS011;52912;48.564;9.302;2023-02-15T13:00:24;14.90;;;7.97;;
66118;SDS011;52912;48.564;9.302;2023-02-15T13:02:52;13.38;;;8.43;;
66118;SDS011;52912;48.564;9.302;2023-02-15T13:05:21;14.35;;;9.32;;
66118;SDS011;52912;48.564;9.302;2023-02-15T13:07:52;16.27;;;10.35;;
66118;SDS011;52912;48.564;9.302;2023-02-15T13:10:25;18.60;;;10.30;;
66118;SDS011;52912;48.564;9.302;2023-02-15T13:12:52;17.25;;;10.05;;
66118;SDS011;52912;48.564;9.302;2023-02-15T13:15:25;19.30;;;10.60;;
66118;SDS011;52912;48.564;9.302;2023-02-15T13:17:55;15.32;;;11.00;;
66118;SDS011;52912;48.564;9.302;2023-02-15T13:20:20;17.75;;;10.05;;
66118;SDS011;52912;48.564;9.302;2023-02-15T13:22:47;17.67;;;10.35;;
66118;SDS011;52912;48.564;9.302;2023-02-15T13:25:17;16.10;;;10.38;;
66118;SDS011;52912;48.564;9.302;2023-02-15T13:27:44;14.73;;;10.25;;
66118;SDS011;52912;48.564;9.302;2023-02-15T13:32:44;16.30;;;10.07;;
66118;SDS011;52912;48.564;9.302;2023-02-15T13:35:13;18.92;;;10.10;;
66118;SDS011;52912;48.564;9.302;2023-02-15T13:37:45;15.70;;;9.68;;
66118;SDS011;52912;48.564;9.302;2023-02-15T13:40:18;13.48;;;9.38;;
66118;SDS011;52912;48.564;9.302;2023-02-15T13:42:49;17.48;;;9.23;;
66118;SDS011;52912;48.564;9.302;2023-02-15T13:45:23;18.88;;;8.60;;
66118;SDS011;52912;48.564;9.302;2023-02-15T13:47:59;12.80;;;7.75;;
66118;SDS011;52912;48.564;9.302;2023-02-15T13:50:39;14.50;;;7.97;;
66118;SDS011;52912;48.564;9.302;2023-02-15T13:53:22;12.88;;;7.65;;
66118;SDS011;52912;48.564;9.302;2023-02-15T13:55:59;11.75;;;7.18;;
66118;SDS011;52912;48.564;9.302;2023-02-15T13:58:32;11.90;;;6.82;;
66118;SDS011;52912;48.564;9.302;2023-02-15T14:01:27;12.25;;;7.65;;
66118;SDS011;52912;48.564;9.302;2023-02-15T14:04:13;10.77;;;6.22;;
66118;SDS011;52912;48.564;9.302;2023-02-15T14:10:01;9.77;;;5.88;;
66118;SDS011;52912;48.564;9.302;2023-02-15T14:12:41;8.20;;;5.07;;
66118;SDS011;52912;48.564;9.302;2023-02-15T14:15:24;11.05;;;4.68;;
66118;SDS011;52912;48.564;9.302;2023-02-15T14:18:01;9.05;;;4.63;;
66118;SDS011;52912;48.564;9.302;2023-02-15T14:20:41;6.65;;;3.67;;
66118;SDS011;52912;48.564;9.302;2023-02-15T14:23:15;11.00;;;3.58;;
66118;SDS011;52912;48.564;9.302;2023-02-15T14:28:19;7.53;;;3.90;;
66118;SDS011;52912;48.564;9.302;2023-02-15T14:30:50;4.72;;;3.00;;
66118;SDS011;52912;48.564;9.302;2023-02-15T14:33:24;10.15;;;4.50;;
66118;SDS011;52912;48.564;9.302;2023-02-15T14:35:57;8.00;;;4.10;;
66118;SDS011;52912;48.564;9.302;2023-02-15T14:38:25;14.55;;;4.65;;
66118;SDS011;52912;48.564;9.302;2023-02-15T14:41:04;6.97;;;4.00;;
66118;SDS011;52912;48.564;9.302;2023-02-15T14:43:37;7.53;;;4.55;;
66118;SDS011;52912;48.564;9.302;2023-02-15T14:46:11;6.15;;;3.67;;
66118;SDS011;52912;48.564;9.302;2023-02-15T14:48:46;7.43;;;4.15;;
66118;SDS011;52912;48.564;9.302;2023-02-15T14:57:29;11.90;;;6.00;;
66118;SDS011;52912;48.564;9.302;2023-02-15T14:59:57;10.70;;;5.60;;
66118;SDS011;52912;48.564;9.302;2023-02-15T15:02:26;11.80;;;6.50;;
66118;SDS011;52912;48.564;9.302;2023-02-15T15:05:01;12.50;;;5.53;;
66118;SDS011;52912;48.564;9.302;2023-02-15T15:07:36;11.10;;;6.85;;